createdAt,value
2023-03-29T00:00:15.296Z,497.00
2023-03-29T00:01:36.172Z,502.00
2023-03-29T00:02:16.365Z,504.00
2023-03-29T00:03:15.424Z,504.00
2023-03-29T00:04:15.449Z,505.00
2023-03-29T00:05:15.276Z,504.00
2023-03-29T00:06:15.293Z,502.00
2023-03-29T00:07:15.277Z,502.00
2023-03-29T00:08:15.265Z,498.00
2023-03-29T00:09:15.282Z,496.00
2023-03-29T00:10:15.250Z,497.00
2023-03-29T00:11:15.250Z,496.00
2023-03-29T00:12:15.248Z,494.00
2023-03-29T00:13:15.267Z,495.00
2023-03-29T00:14:15.279Z,497.00
2023-03-29T00:15:15.308Z,498.00
2023-03-29T00:16:15.360Z,499.00
2023-03-29T00:17:15.365Z,498.00
2023-03-29T00:18:15.384Z,500.00
2023-03-29T00:19:15.390Z,501.00
2023-03-29T00:20:15.435Z,504.00
2023-03-29T00:21:15.423Z,503.00
2023-03-29T00:22:15.468Z,502.00
2023-03-29T00:23:15.493Z,499.00
2023-03-29T00:24:15.504Z,497.00
2023-03-29T00:25:15.641Z,497.00
2023-03-29T00:26:15.594Z,496.00
2023-03-29T00:27:15.565Z,494.00
2023-03-29T00:28:15.602Z,493.00
2023-03-29T00:29:15.662Z,492.00
2023-03-29T00:30:15.655Z,495.00
2023-03-29T00:31:15.733Z,495.00
2023-03-29T00:32:15.719Z,494.00
2023-03-29T00:33:15.758Z,495.00
2023-03-29T00:34:15.773Z,492.00
2023-03-29T00:35:15.808Z,488.00
2023-03-29T00:36:15.832Z,490.00
2023-03-29T00:37:15.841Z,492.00
2023-03-29T00:38:15.859Z,493.00
2023-03-29T00:39:15.889Z,495.00
2023-03-29T00:40:15.916Z,497.00
2023-03-29T00:41:15.948Z,501.00
2023-03-29T00:42:15.979Z,504.00
2023-03-29T00:43:15.995Z,504.00
2023-03-29T00:44:16.034Z,503.00
2023-03-29T00:45:16.103Z,504.00
2023-03-29T00:46:16.115Z,503.00
2023-03-29T00:47:16.158Z,502.00
2023-03-29T00:48:16.178Z,502.00
2023-03-29T00:49:16.270Z,503.00
2023-03-29T00:50:16.305Z,502.00
2023-03-29T00:51:16.368Z,501.00
2023-03-29T00:52:16.418Z,501.00
2023-03-29T00:53:16.426Z,497.00
2023-03-29T00:54:16.472Z,498.00
2023-03-29T00:55:16.475Z,499.00
2023-03-29T00:56:16.527Z,499.00
2023-03-29T00:57:16.602Z,498.00
2023-03-29T00:58:16.598Z,497.00
2023-03-29T00:59:16.622Z,495.00
2023-03-29T01:00:16.690Z,495.00
2023-03-29T01:01:16.719Z,495.00
2023-03-29T01:02:16.809Z,492.00
2023-03-29T01:03:16.892Z,492.00
2023-03-29T01:04:16.805Z,492.00
2023-03-29T01:05:16.858Z,491.00
2023-03-29T01:06:16.905Z,493.00
2023-03-29T01:07:16.938Z,494.00
2023-03-29T01:08:16.918Z,493.00
2023-03-29T01:09:16.937Z,494.00
2023-03-29T01:10:16.971Z,497.00
2023-03-29T01:11:17.009Z,499.00
2023-03-29T01:12:17.064Z,497.00
2023-03-29T01:13:17.081Z,496.00
2023-03-29T01:14:17.082Z,493.00
2023-03-29T01:15:17.133Z,492.00
2023-03-29T01:16:17.201Z,495.00
2023-03-29T01:17:17.154Z,492.00
2023-03-29T01:18:17.201Z,493.00
2023-03-29T01:19:17.238Z,492.00
2023-03-29T01:20:17.235Z,495.00
2023-03-29T01:21:17.234Z,497.00
2023-03-29T01:22:17.257Z,498.00
2023-03-29T01:23:17.332Z,497.00
2023-03-29T01:24:17.350Z,500.00
2023-03-29T01:25:17.412Z,499.00
2023-03-29T01:26:17.377Z,502.00
2023-03-29T01:27:17.433Z,500.00
2023-03-29T01:28:17.458Z,498.00
2023-03-29T01:29:17.524Z,497.00
2023-03-29T01:30:17.523Z,495.00
2023-03-29T01:31:17.562Z,496.00
2023-03-29T01:32:17.613Z,497.00
2023-03-29T01:33:17.628Z,497.00
2023-03-29T01:34:17.690Z,495.00
2023-03-29T01:35:17.795Z,494.00
2023-03-29T01:36:17.810Z,491.00
2023-03-29T01:37:17.795Z,490.00
2023-03-29T01:38:17.821Z,487.00
2023-03-29T01:39:17.833Z,488.00
2023-03-29T01:40:17.937Z,488.00
2023-03-29T01:41:17.906Z,485.00
2023-03-29T01:42:17.919Z,485.00
2023-03-29T01:43:17.982Z,484.00
2023-03-29T01:44:17.969Z,485.00
2023-03-29T01:45:17.996Z,486.00
2023-03-29T01:46:18.043Z,484.00
2023-03-29T01:47:18.045Z,485.00
2023-03-29T01:48:18.084Z,486.00
2023-03-29T01:49:18.070Z,486.00
2023-03-29T01:50:18.117Z,485.00
2023-03-29T01:51:18.150Z,487.00
2023-03-29T01:52:18.156Z,486.00
2023-03-29T01:53:18.228Z,483.00
2023-03-29T01:54:18.223Z,482.00
2023-03-29T01:55:18.273Z,482.00
2023-03-29T01:56:18.303Z,481.00
2023-03-29T01:57:18.330Z,481.00
2023-03-29T01:58:18.350Z,480.00
2023-03-29T01:59:18.350Z,482.00
2023-03-29T02:00:18.387Z,481.00
2023-03-29T02:01:18.431Z,479.00
2023-03-29T02:02:18.459Z,480.00
2023-03-29T02:03:18.588Z,480.00
2023-03-29T02:04:18.470Z,479.00
2023-03-29T02:05:18.526Z,475.00
2023-03-29T02:06:18.548Z,476.00
2023-03-29T02:07:18.620Z,475.00
2023-03-29T02:08:18.646Z,476.00
2023-03-29T02:09:18.660Z,476.00
2023-03-29T02:10:18.688Z,477.00
2023-03-29T02:11:18.747Z,473.00
2023-03-29T02:12:18.750Z,473.00
2023-03-29T02:13:18.815Z,470.00
2023-03-29T02:14:18.813Z,468.00
2023-03-29T02:15:18.822Z,468.00
2023-03-29T02:16:19.026Z,469.00
2023-03-29T02:17:18.893Z,468.00
2023-03-29T02:18:18.955Z,469.00
2023-03-29T02:19:18.947Z,470.00
2023-03-29T02:20:18.950Z,471.00
2023-03-29T02:21:18.976Z,473.00
2023-03-29T02:22:19.001Z,473.00
2023-03-29T02:23:19.023Z,473.00
2023-03-29T02:24:19.049Z,472.00
2023-03-29T02:25:19.094Z,474.00
2023-03-29T02:26:19.126Z,477.00
2023-03-29T02:27:19.129Z,476.00
2023-03-29T02:28:19.169Z,474.00
2023-03-29T02:29:19.202Z,470.00
2023-03-29T02:30:19.209Z,470.00
2023-03-29T02:31:19.275Z,470.00
2023-03-29T02:32:19.250Z,466.00
2023-03-29T02:33:19.326Z,466.00
2023-03-29T02:34:19.366Z,465.00
2023-03-29T02:35:19.352Z,466.00
2023-03-29T02:36:19.403Z,466.00
2023-03-29T02:37:19.404Z,469.00
2023-03-29T02:38:19.432Z,469.00
2023-03-29T02:39:19.477Z,469.00
2023-03-29T02:40:19.516Z,468.00
2023-03-29T02:41:19.541Z,471.00
2023-03-29T02:42:19.582Z,470.00
2023-03-29T02:43:19.604Z,469.00
2023-03-29T02:44:19.635Z,470.00
2023-03-29T02:45:19.693Z,470.00
2023-03-29T02:46:19.746Z,468.00
2023-03-29T02:47:19.758Z,466.00
2023-03-29T02:48:19.823Z,465.00
2023-03-29T02:49:19.856Z,469.00
2023-03-29T02:50:19.892Z,471.00
2023-03-29T02:51:20.358Z,470.00
2023-03-29T02:52:19.973Z,468.00
2023-03-29T02:53:20.034Z,466.00
2023-03-29T02:54:20.041Z,467.00
2023-03-29T02:55:20.083Z,468.00
2023-03-29T02:56:20.092Z,468.00
2023-03-29T02:57:20.162Z,467.00
2023-03-29T02:58:20.151Z,468.00
2023-03-29T02:59:20.194Z,470.00
2023-03-29T03:00:20.300Z,470.00
2023-03-29T03:01:20.481Z,469.00
2023-03-29T03:02:20.462Z,469.00
2023-03-29T03:03:20.336Z,470.00
2023-03-29T03:04:20.342Z,470.00
2023-03-29T03:05:20.358Z,471.00
2023-03-29T03:06:20.363Z,472.00
2023-03-29T03:07:20.365Z,472.00
2023-03-29T03:08:20.367Z,469.00
2023-03-29T03:09:20.385Z,469.00
2023-03-29T03:10:20.417Z,471.00
2023-03-29T03:11:20.395Z,469.00
2023-03-29T03:12:20.429Z,470.00
2023-03-29T03:13:20.437Z,473.00
2023-03-29T03:14:20.462Z,470.00
2023-03-29T03:15:20.489Z,469.00
2023-03-29T03:16:20.622Z,470.00
2023-03-29T03:17:20.561Z,470.00
2023-03-29T03:18:20.604Z,470.00
2023-03-29T03:19:20.651Z,469.00
2023-03-29T03:20:20.683Z,469.00
2023-03-29T03:21:20.713Z,469.00
2023-03-29T03:22:20.741Z,467.00
2023-03-29T03:23:20.762Z,467.00
2023-03-29T03:24:20.821Z,468.00
2023-03-29T03:25:20.891Z,467.00
2023-03-29T03:26:20.874Z,466.00
2023-03-29T03:27:20.921Z,467.00
2023-03-29T03:28:20.941Z,466.00
2023-03-29T03:29:20.988Z,465.00
2023-03-29T03:30:21.066Z,463.00
2023-03-29T03:31:21.073Z,464.00
2023-03-29T03:32:21.087Z,466.00
2023-03-29T03:33:21.161Z,466.00
2023-03-29T03:34:21.160Z,465.00
2023-03-29T03:35:21.134Z,463.00
2023-03-29T03:36:21.174Z,463.00
2023-03-29T03:37:21.139Z,463.00
2023-03-29T03:38:21.191Z,464.00
2023-03-29T03:39:21.192Z,463.00
2023-03-29T03:40:21.188Z,463.00
2023-03-29T03:41:21.154Z,460.00
2023-03-29T03:42:21.154Z,462.00
2023-03-29T03:43:21.176Z,463.00
2023-03-29T03:44:21.176Z,464.00
2023-03-29T03:45:21.164Z,462.00
2023-03-29T03:46:21.191Z,458.00
2023-03-29T03:47:21.148Z,457.00
2023-03-29T03:48:21.140Z,457.00
2023-03-29T03:49:21.099Z,456.00
2023-03-29T03:50:21.114Z,459.00
2023-03-29T03:51:21.092Z,461.00
2023-03-29T03:52:21.129Z,459.00
2023-03-29T03:53:21.104Z,458.00
2023-03-29T03:54:21.091Z,457.00
2023-03-29T03:55:21.120Z,458.00
2023-03-29T03:56:21.103Z,459.00
2023-03-29T03:57:21.171Z,461.00
2023-03-29T03:58:21.076Z,463.00
2023-03-29T03:59:21.093Z,464.00
2023-03-29T04:00:21.201Z,463.00
2023-03-29T04:01:21.090Z,460.00
2023-03-29T04:02:21.153Z,462.00
2023-03-29T04:03:21.260Z,462.00
2023-03-29T04:04:21.145Z,459.00
2023-03-29T04:05:21.115Z,459.00
2023-03-29T04:06:21.124Z,460.00
2023-03-29T04:07:21.115Z,458.00
2023-03-29T04:08:21.106Z,456.00
2023-03-29T04:09:21.143Z,458.00
2023-03-29T04:10:21.152Z,456.00
2023-03-29T04:11:21.129Z,458.00
2023-03-29T04:12:21.099Z,460.00
2023-03-29T04:13:21.107Z,461.00
2023-03-29T04:14:21.082Z,462.00
2023-03-29T04:15:21.092Z,459.00
2023-03-29T04:16:21.173Z,464.00
2023-03-29T04:17:21.150Z,464.00
2023-03-29T04:18:21.224Z,463.00
2023-03-29T04:19:21.208Z,462.00
2023-03-29T04:20:21.262Z,462.00
2023-03-29T04:21:21.489Z,460.00
2023-03-29T04:22:21.322Z,461.00
2023-03-29T04:23:21.362Z,459.00
2023-03-29T04:24:21.417Z,456.00
2023-03-29T04:25:21.475Z,455.00
2023-03-29T04:26:21.470Z,455.00
2023-03-29T04:27:21.534Z,455.00
2023-03-29T04:28:21.587Z,454.00
2023-03-29T04:29:21.611Z,453.00
2023-03-29T04:30:21.645Z,453.00
2023-03-29T04:31:21.750Z,455.00
2023-03-29T04:32:21.739Z,456.00
2023-03-29T04:33:21.782Z,455.00
2023-03-29T04:34:21.806Z,454.00
2023-03-29T04:35:21.862Z,455.00
2023-03-29T04:36:21.919Z,456.00
2023-03-29T04:37:21.845Z,456.00
2023-03-29T04:38:21.874Z,454.00
2023-03-29T04:39:21.937Z,454.00
2023-03-29T04:40:21.976Z,454.00
2023-03-29T04:41:22.026Z,454.00
2023-03-29T04:42:22.018Z,454.00
2023-03-29T04:43:22.079Z,453.00
2023-03-29T04:44:22.109Z,457.00
2023-03-29T04:45:22.267Z,456.00
2023-03-29T04:46:22.256Z,454.00
2023-03-29T04:47:22.238Z,454.00
2023-03-29T04:48:22.306Z,451.00
2023-03-29T04:49:23.905Z,450.00
2023-03-29T04:50:22.314Z,452.00
2023-03-29T04:51:22.340Z,452.00
2023-03-29T04:52:24.405Z,453.00
2023-03-29T04:53:22.307Z,451.00
2023-03-29T04:54:22.300Z,452.00
2023-03-29T04:55:22.251Z,451.00
2023-03-29T04:56:22.300Z,448.00
2023-03-29T04:57:22.315Z,449.00
2023-03-29T04:58:24.769Z,448.00
2023-03-29T04:59:22.369Z,449.00
2023-03-29T05:00:29.345Z,452.00
2023-03-29T05:01:22.374Z,452.00
2023-03-29T05:02:22.393Z,454.00
2023-03-29T05:03:22.336Z,455.00
2023-03-29T05:04:22.411Z,454.00
2023-03-29T05:05:22.276Z,454.00
2023-03-29T05:06:22.291Z,453.00
2023-03-29T05:07:22.307Z,453.00
2023-03-29T05:08:22.342Z,454.00
2023-03-29T05:09:22.299Z,457.00
2023-03-29T05:10:22.284Z,460.00
2023-03-29T05:11:22.298Z,460.00
2023-03-29T05:12:22.260Z,461.00
2023-03-29T05:13:22.286Z,460.00
2023-03-29T05:14:22.224Z,460.00
2023-03-29T05:15:22.285Z,458.00
2023-03-29T05:16:22.243Z,459.00
2023-03-29T05:17:22.229Z,459.00
2023-03-29T05:18:22.209Z,457.00
2023-03-29T05:19:22.190Z,455.00
2023-03-29T05:20:22.213Z,453.00
2023-03-29T05:21:22.196Z,451.00
2023-03-29T05:22:22.201Z,452.00
2023-03-29T05:23:22.180Z,453.00
2023-03-29T05:24:22.190Z,454.00
2023-03-29T05:25:22.159Z,453.00
2023-03-29T05:26:22.143Z,454.00
2023-03-29T05:27:22.149Z,455.00
2023-03-29T05:28:22.114Z,455.00
2023-03-29T05:29:22.145Z,453.00
2023-03-29T05:30:22.122Z,450.00
2023-03-29T05:31:22.173Z,448.00
2023-03-29T05:32:22.120Z,452.00
2023-03-29T05:33:22.115Z,455.00
2023-03-29T05:34:22.091Z,456.00
2023-03-29T05:35:22.081Z,457.00
2023-03-29T05:36:22.081Z,456.00
2023-03-29T05:37:22.079Z,458.00
2023-03-29T05:38:22.076Z,462.00
2023-03-29T05:39:22.074Z,464.00
2023-03-29T05:40:22.080Z,504.00
2023-03-29T05:41:22.067Z,501.00
2023-03-29T05:42:22.042Z,505.00
2023-03-29T05:43:22.042Z,506.00
2023-03-29T05:44:22.423Z,508.00
2023-03-29T05:45:29.131Z,517.00
2023-03-29T05:46:22.062Z,528.00
2023-03-29T05:47:22.012Z,544.00
2023-03-29T05:48:21.994Z,580.00
2023-03-29T05:49:22.003Z,589.00
2023-03-29T05:50:22.009Z,588.00
2023-03-29T05:51:22.018Z,587.00
2023-03-29T05:52:21.937Z,586.00
2023-03-29T05:53:21.931Z,584.00
2023-03-29T05:54:22.007Z,588.00
2023-03-29T05:55:21.947Z,589.00
2023-03-29T05:56:21.939Z,588.00
2023-03-29T05:57:21.994Z,598.00
2023-03-29T05:58:21.967Z,625.00
2023-03-29T05:59:21.977Z,725.00
2023-03-29T06:00:21.953Z,744.00
2023-03-29T06:01:21.958Z,741.00
2023-03-29T06:02:21.953Z,742.00
2023-03-29T06:03:22.259Z,732.00
2023-03-29T06:04:21.983Z,734.00
2023-03-29T06:05:21.928Z,756.00
2023-03-29T06:06:21.879Z,770.00
2023-03-29T06:07:21.876Z,786.00
2023-03-29T06:08:21.887Z,807.00
2023-03-29T06:09:21.855Z,813.00
2023-03-29T06:10:21.849Z,802.00
2023-03-29T06:11:21.933Z,801.00
2023-03-29T06:12:21.858Z,807.00
2023-03-29T06:13:21.820Z,816.00
2023-03-29T06:14:21.822Z,834.00
2023-03-29T06:15:21.792Z,851.00
2023-03-29T06:16:21.890Z,859.00
2023-03-29T06:17:21.832Z,871.00
2023-03-29T06:18:21.794Z,889.00
2023-03-29T06:19:21.806Z,902.00
2023-03-29T06:20:21.823Z,905.00
2023-03-29T06:21:21.782Z,912.00
2023-03-29T06:22:21.780Z,909.00
2023-03-29T06:23:21.757Z,907.00
2023-03-29T06:24:21.805Z,909.00
2023-03-29T06:25:21.817Z,925.00
2023-03-29T06:26:21.735Z,932.00
2023-03-29T06:27:21.744Z,944.00
2023-03-29T06:28:21.769Z,952.00
2023-03-29T06:29:21.733Z,964.00
2023-03-29T06:30:21.742Z,976.00
2023-03-29T06:31:21.806Z,983.00
2023-03-29T06:32:21.699Z,992.00
2023-03-29T06:33:21.689Z,996.00
2023-03-29T06:34:21.718Z,809.00
2023-03-29T06:35:21.725Z,864.00
2023-03-29T06:36:21.686Z,770.00
2023-03-29T06:37:21.677Z,757.00
2023-03-29T06:38:21.637Z,667.00
2023-03-29T06:39:21.657Z,739.00
2023-03-29T06:40:21.650Z,750.00
2023-03-29T06:41:21.656Z,756.00
2023-03-29T06:42:22.003Z,752.00
2023-03-29T06:43:21.627Z,748.00
2023-03-29T06:44:21.970Z,756.00
2023-03-29T06:45:23.830Z,834.00
2023-03-29T06:46:21.646Z,848.00
2023-03-29T06:47:21.637Z,823.00
2023-03-29T06:48:21.630Z,814.00
2023-03-29T06:49:21.605Z,818.00
2023-03-29T06:50:21.617Z,819.00
2023-03-29T06:51:23.316Z,813.00
2023-03-29T06:52:21.587Z,807.00
2023-03-29T06:53:21.594Z,796.00
2023-03-29T06:54:21.578Z,786.00
2023-03-29T06:55:21.602Z,779.00
2023-03-29T06:56:21.559Z,780.00
2023-03-29T06:57:21.572Z,783.00
2023-03-29T06:58:21.552Z,775.00
2023-03-29T06:59:21.588Z,768.00
2023-03-29T07:00:21.548Z,769.00
2023-03-29T07:01:21.563Z,769.00
2023-03-29T07:02:21.548Z,766.00
2023-03-29T07:03:21.629Z,762.00
2023-03-29T07:04:21.698Z,752.00
2023-03-29T07:05:21.670Z,742.00
2023-03-29T07:06:21.680Z,742.00
2023-03-29T07:07:21.721Z,739.00
2023-03-29T07:08:21.797Z,738.00
2023-03-29T07:09:21.997Z,739.00
2023-03-29T07:10:21.949Z,736.00
2023-03-29T07:11:21.919Z,735.00
2023-03-29T07:12:21.884Z,737.00
2023-03-29T07:13:21.920Z,739.00
2023-03-29T07:14:21.968Z,737.00
2023-03-29T07:15:21.971Z,737.00
2023-03-29T07:16:22.050Z,733.00
2023-03-29T07:17:22.083Z,732.00
2023-03-29T07:18:22.102Z,729.00
2023-03-29T07:19:22.068Z,732.00
2023-03-29T07:20:22.085Z,732.00
2023-03-29T07:21:22.063Z,728.00
2023-03-29T07:22:22.081Z,726.00
2023-03-29T07:23:22.064Z,728.00
2023-03-29T07:24:22.073Z,725.00
2023-03-29T07:25:22.096Z,725.00
2023-03-29T07:26:28.883Z,722.00
2023-03-29T07:27:23.046Z,721.00
2023-03-29T07:28:22.085Z,717.00
2023-03-29T07:29:22.035Z,715.00
2023-03-29T07:30:22.021Z,711.00
2023-03-29T07:31:22.056Z,708.00
2023-03-29T07:32:22.057Z,708.00
2023-03-29T07:33:22.261Z,710.00
2023-03-29T07:34:21.994Z,710.00
2023-03-29T07:35:21.998Z,710.00
2023-03-29T07:36:22.004Z,710.00
2023-03-29T07:37:21.991Z,715.00
2023-03-29T07:38:21.986Z,722.00
2023-03-29T07:39:22.007Z,730.00
2023-03-29T07:40:21.950Z,734.00
2023-03-29T07:41:21.951Z,800.00
2023-03-29T07:42:21.963Z,818.00
2023-03-29T07:43:21.958Z,825.00
2023-03-29T07:44:21.919Z,830.00
2023-03-29T07:45:26.822Z,831.00
2023-03-29T07:46:22.935Z,833.00
2023-03-29T07:47:21.894Z,832.00
2023-03-29T07:48:21.888Z,829.00
2023-03-29T07:49:22.257Z,834.00
2023-03-29T07:50:21.889Z,832.00
2023-03-29T07:51:21.887Z,835.00
2023-03-29T07:52:21.913Z,835.00
2023-03-29T07:53:21.895Z,836.00
2023-03-29T07:54:21.912Z,842.00
2023-03-29T07:55:21.856Z,851.00
2023-03-29T07:56:21.834Z,841.00
2023-03-29T07:57:21.847Z,843.00
2023-03-29T07:58:21.894Z,846.00
2023-03-29T07:59:21.937Z,854.00
2023-03-29T08:00:22.046Z,855.00
2023-03-29T08:01:22.086Z,854.00
2023-03-29T08:02:22.111Z,856.00
2023-03-29T08:03:22.289Z,859.00
2023-03-29T08:04:22.324Z,858.00
2023-03-29T08:05:33.584Z,862.00
2023-03-29T08:06:23.261Z,857.00
2023-03-29T08:07:22.283Z,866.00
2023-03-29T08:08:22.266Z,863.00
2023-03-29T08:09:22.258Z,875.00
2023-03-29T08:10:22.289Z,854.00
2023-03-29T08:11:22.253Z,868.00
2023-03-29T08:12:24.498Z,862.00
2023-03-29T08:13:22.215Z,898.00
2023-03-29T08:14:22.238Z,919.00
2023-03-29T08:15:22.260Z,899.00
2023-03-29T08:16:22.270Z,899.00
2023-03-29T08:17:22.223Z,895.00
2023-03-29T08:18:22.246Z,889.00
2023-03-29T08:19:22.214Z,900.00
2023-03-29T08:20:22.509Z,905.00
2023-03-29T08:21:22.152Z,903.00
2023-03-29T08:22:22.168Z,914.00
2023-03-29T08:23:22.165Z,908.00
2023-03-29T08:24:22.152Z,907.00
2023-03-29T08:25:22.146Z,912.00
2023-03-29T08:26:22.161Z,920.00
2023-03-29T08:27:22.119Z,931.00
2023-03-29T08:28:22.118Z,943.00
2023-03-29T08:29:22.178Z,947.00
2023-03-29T08:30:23.116Z,953.00
2023-03-29T08:31:22.153Z,957.00
2023-03-29T08:32:22.141Z,949.00
2023-03-29T08:33:22.150Z,983.00
2023-03-29T08:34:22.113Z,1012.00
2023-03-29T08:35:22.511Z,1016.00
2023-03-29T08:36:22.072Z,1026.00
2023-03-29T08:37:22.111Z,1033.00
2023-03-29T08:38:22.077Z,1042.00
2023-03-29T08:39:22.096Z,1047.00
2023-03-29T08:40:22.041Z,1052.00
2023-03-29T08:41:22.088Z,1062.00
2023-03-29T08:42:22.131Z,1080.00
2023-03-29T08:43:22.196Z,1087.00
2023-03-29T08:44:22.271Z,1096.00
2023-03-29T08:45:22.318Z,1102.00
2023-03-29T08:46:22.462Z,1109.00
2023-03-29T08:47:22.441Z,1110.00
2023-03-29T08:48:23.357Z,1119.00
2023-03-29T08:49:22.368Z,1126.00
2023-03-29T08:50:22.501Z,1127.00
2023-03-29T08:51:22.344Z,1126.00
2023-03-29T08:52:22.338Z,1118.00
2023-03-29T08:53:22.335Z,1175.00
2023-03-29T08:54:22.339Z,1172.00
2023-03-29T08:55:22.513Z,1163.00
2023-03-29T08:56:22.317Z,1161.00
2023-03-29T08:57:22.406Z,1207.00
2023-03-29T08:58:22.311Z,1197.00
2023-03-29T08:59:22.311Z,1200.00
2023-03-29T09:00:22.288Z,1207.00
2023-03-29T09:01:22.316Z,1214.00
2023-03-29T09:02:22.397Z,1205.00
2023-03-29T09:03:22.378Z,1217.00
2023-03-29T09:04:22.283Z,1225.00
2023-03-29T09:05:22.279Z,1228.00
2023-03-29T09:06:22.334Z,1217.00
2023-03-29T09:07:23.032Z,1203.00
2023-03-29T09:08:22.226Z,1196.00
2023-03-29T09:09:22.226Z,1197.00
2023-03-29T09:10:22.491Z,1212.00
2023-03-29T09:11:22.216Z,1222.00
2023-03-29T09:12:22.174Z,1244.00
2023-03-29T09:13:22.281Z,1246.00
2023-03-29T09:14:22.205Z,1252.00
2023-03-29T09:15:22.259Z,1246.00
2023-03-29T09:16:22.192Z,1239.00
2023-03-29T09:17:22.211Z,1237.00
2023-03-29T09:18:22.208Z,1246.00
2023-03-29T09:19:22.186Z,1249.00
2023-03-29T09:20:22.507Z,1246.00
2023-03-29T09:21:22.245Z,1234.00
2023-03-29T09:22:22.191Z,1218.00
2023-03-29T09:23:22.185Z,1213.00
2023-03-29T09:24:22.235Z,1213.00
2023-03-29T09:25:22.314Z,1086.00
2023-03-29T09:26:22.334Z,1105.00
2023-03-29T09:27:22.365Z,1102.00
2023-03-29T09:28:22.434Z,1092.00
2023-03-29T09:29:22.464Z,1147.00
2023-03-29T09:30:23.003Z,1156.00
2023-03-29T09:31:22.577Z,1156.00
2023-03-29T09:32:22.594Z,1146.00
2023-03-29T09:33:22.622Z,1141.00
2023-03-29T09:34:22.691Z,1137.00
2023-03-29T09:35:22.727Z,1144.00
2023-03-29T09:36:22.727Z,1119.00
2023-03-29T09:37:22.787Z,1114.00
2023-03-29T09:38:22.842Z,1146.00
2023-03-29T09:39:22.872Z,1117.00
2023-03-29T09:40:22.926Z,1110.00
2023-03-29T09:41:22.904Z,1110.00
2023-03-29T09:42:22.870Z,1104.00
2023-03-29T09:43:22.943Z,1103.00
2023-03-29T09:44:30.769Z,1132.00
2023-03-29T09:45:24.082Z,1139.00
2023-03-29T09:46:23.112Z,1148.00
2023-03-29T09:47:22.977Z,1173.00
2023-03-29T09:48:22.969Z,1169.00
2023-03-29T09:49:22.949Z,1176.00
2023-03-29T09:50:30.829Z,1157.00
2023-03-29T09:51:23.958Z,1134.00
2023-03-29T09:52:22.939Z,1144.00
2023-03-29T09:53:22.947Z,1152.00
2023-03-29T09:54:22.917Z,1157.00
2023-03-29T09:55:22.927Z,1100.00
2023-03-29T09:56:22.893Z,1087.00
2023-03-29T09:57:22.943Z,1095.00
2023-03-29T09:58:22.958Z,1132.00
2023-03-29T09:59:22.983Z,1134.00
2023-03-29T10:00:22.949Z,1125.00
2023-03-29T10:01:23.132Z,1129.00
2023-03-29T10:02:24.628Z,1120.00
2023-03-29T10:03:23.985Z,1114.00
2023-03-29T10:04:23.088Z,1063.00
2023-03-29T10:05:23.032Z,1070.00
2023-03-29T10:06:22.982Z,1118.00
2023-03-29T10:07:22.957Z,1101.00
2023-03-29T10:08:22.955Z,982.00
2023-03-29T10:09:22.999Z,1095.00
2023-03-29T10:10:22.970Z,1099.00
2023-03-29T10:11:22.975Z,1088.00
2023-03-29T10:12:22.946Z,1053.00
2023-03-29T10:13:22.955Z,1023.00
2023-03-29T10:14:22.957Z,1034.00
2023-03-29T10:15:29.707Z,1011.00
2023-03-29T10:16:23.984Z,1042.00
2023-03-29T10:17:22.933Z,1062.00
2023-03-29T10:18:22.874Z,1069.00
2023-03-29T10:19:22.885Z,1069.00
2023-03-29T10:20:22.892Z,1059.00
2023-03-29T10:21:22.879Z,1002.00
2023-03-29T10:22:22.846Z,1059.00
2023-03-29T10:23:22.837Z,1066.00
2023-03-29T10:24:22.830Z,1065.00
2023-03-29T10:25:22.824Z,1041.00
2023-03-29T10:26:22.882Z,1050.00
2023-03-29T10:27:22.887Z,1057.00
2023-03-29T10:28:22.817Z,1055.00
2023-03-29T10:29:22.871Z,1007.00
2023-03-29T10:30:22.875Z,1035.00
2023-03-29T10:31:23.108Z,1039.00
2023-03-29T10:32:23.027Z,1036.00
2023-03-29T10:33:22.779Z,1029.00
2023-03-29T10:34:22.745Z,1033.00
2023-03-29T10:35:22.775Z,1038.00
2023-03-29T10:36:23.038Z,1042.00
2023-03-29T10:37:22.760Z,1049.00
2023-03-29T10:38:22.717Z,1058.00
2023-03-29T10:39:22.721Z,1064.00
2023-03-29T10:40:22.699Z,987.00
2023-03-29T10:41:22.697Z,1037.00
2023-03-29T10:42:22.702Z,1022.00
2023-03-29T10:43:22.723Z,1022.00
2023-03-29T10:44:22.682Z,1040.00
2023-03-29T10:45:22.727Z,1036.00
2023-03-29T10:46:22.806Z,1054.00
2023-03-29T10:47:22.675Z,1061.00
2023-03-29T10:48:22.696Z,1056.00
2023-03-29T10:49:22.652Z,1044.00
2023-03-29T10:50:22.706Z,1050.00
2023-03-29T10:51:22.729Z,1058.00
2023-03-29T10:52:22.700Z,985.00
2023-03-29T10:53:22.751Z,1004.00
2023-03-29T10:54:22.732Z,1015.00
2023-03-29T10:55:22.728Z,1025.00
2023-03-29T10:56:22.785Z,1027.00
2023-03-29T10:57:22.973Z,1030.00
2023-03-29T10:58:22.868Z,1034.00
2023-03-29T10:59:22.890Z,1013.00
2023-03-29T11:00:22.893Z,995.00
2023-03-29T11:01:22.951Z,1008.00
2023-03-29T11:02:23.053Z,1001.00
2023-03-29T11:03:23.011Z,997.00
2023-03-29T11:04:23.029Z,987.00
2023-03-29T11:05:22.960Z,918.00
2023-03-29T11:06:23.042Z,912.00
2023-03-29T11:07:23.010Z,972.00
2023-03-29T11:08:23.016Z,938.00
2023-03-29T11:09:22.994Z,961.00
2023-03-29T11:10:23.008Z,930.00
2023-03-29T11:11:23.004Z,1004.00
2023-03-29T11:12:23.023Z,1019.00
2023-03-29T11:13:23.022Z,1015.00
2023-03-29T11:14:23.042Z,1011.00
2023-03-29T11:15:23.094Z,1009.00
2023-03-29T11:16:23.092Z,1002.00
2023-03-29T11:17:23.052Z,995.00
2023-03-29T11:18:23.022Z,990.00
2023-03-29T11:19:23.024Z,994.00
2023-03-29T11:20:23.043Z,986.00
2023-03-29T11:21:23.054Z,992.00
2023-03-29T11:22:23.055Z,981.00
2023-03-29T11:23:23.055Z,962.00
2023-03-29T11:24:23.079Z,957.00
2023-03-29T11:25:23.030Z,962.00
2023-03-29T11:26:23.588Z,984.00
2023-03-29T11:27:23.061Z,1009.00
2023-03-29T11:28:23.091Z,1030.00
2023-03-29T11:29:23.101Z,1033.00
2023-03-29T11:30:23.171Z,1020.00
2023-03-29T11:31:23.617Z,1025.00
2023-03-29T11:32:23.336Z,1018.00
2023-03-29T11:33:23.305Z,1001.00
2023-03-29T11:34:23.346Z,1016.00
2023-03-29T11:35:23.410Z,1025.00
2023-03-29T11:36:23.560Z,1033.00
2023-03-29T11:37:23.527Z,1022.00
2023-03-29T11:38:23.529Z,979.00
2023-03-29T11:39:23.593Z,993.00
2023-03-29T11:40:23.609Z,993.00
2023-03-29T11:41:23.662Z,999.00
2023-03-29T11:42:23.711Z,1010.00
2023-03-29T11:43:23.761Z,1016.00
2023-03-29T11:44:23.818Z,1008.00
2023-03-29T11:45:23.891Z,975.00
2023-03-29T11:46:23.928Z,983.00
2023-03-29T11:47:23.905Z,985.00
2023-03-29T11:48:23.908Z,991.00
2023-03-29T11:49:23.878Z,1002.00
2023-03-29T11:50:23.912Z,1013.00
2023-03-29T11:51:23.929Z,1015.00
2023-03-29T11:52:23.906Z,1018.00
2023-03-29T11:53:23.890Z,1012.00
2023-03-29T11:54:23.915Z,1010.00
2023-03-29T11:55:23.954Z,989.00
2023-03-29T11:56:23.961Z,907.00
2023-03-29T11:57:23.965Z,952.00
2023-03-29T11:58:23.938Z,968.00
2023-03-29T11:59:23.930Z,984.00
2023-03-29T12:00:23.944Z,982.00
2023-03-29T12:01:23.909Z,989.00
2023-03-29T12:02:24.048Z,993.00
2023-03-29T12:03:23.971Z,992.00
2023-03-29T12:04:23.974Z,997.00
2023-03-29T12:05:23.935Z,1002.00
2023-03-29T12:06:23.938Z,1008.00
2023-03-29T12:07:23.933Z,1010.00
2023-03-29T12:08:23.924Z,1010.00
2023-03-29T12:09:23.954Z,1009.00
2023-03-29T12:10:23.953Z,1007.00
2023-03-29T12:11:23.935Z,1007.00
2023-03-29T12:12:23.930Z,1003.00
2023-03-29T12:13:23.911Z,999.00
2023-03-29T12:14:25.463Z,996.00
2023-03-29T12:15:23.930Z,989.00
2023-03-29T12:16:23.953Z,988.00
2023-03-29T12:17:23.947Z,986.00
2023-03-29T12:18:23.871Z,983.00
2023-03-29T12:19:23.891Z,979.00
2023-03-29T12:20:23.884Z,977.00
2023-03-29T12:21:23.876Z,968.00
2023-03-29T12:22:23.876Z,963.00